Time;durP1;ratioP1;P1;durP2;ratioP2;P2;SDS_P1;SDS_P2;PMS_P1;PMS_P2;Temp;Humidity;BMP_temperature;BMP_pressure;BME280_temperature;BME280_humidity;BME280_pressure;Samples;Min_cycle;Max_cycle;Signal;HPM_P1;HPM_P2
2022/01/31 00:00:52;;;;;;;17.60;10.27;;;3.70;88.20;;;;;;5098541;28;20516;-46
2022/01/31 00:03:18;;;;;;;17.43;8.87;;;3.80;88.40;;;;;;5097998;28;20558;-47
2022/01/31 00:05:44;;;;;;;15.70;8.17;;;3.80;88.20;;;;;;5098056;28;20482;-46
2022/01/31 00:08:09;;;;;;;13.87;7.17;;;3.80;88.20;;;;;;5097214;28;20176;-47
2022/01/31 00:10:35;;;;;;;13.10;7.77;;;3.80;88.00;;;;;;5097815;28;20300;-47
2022/01/31 00:13:07;;;;;;;15.73;7.47;;;3.80;87.90;;;;;;5097322;28;20203;-47
2022/01/31 00:15:38;;;;;;;13.53;8.47;;;3.80;88.00;;;;;;5097442;28;20214;-47
2022/01/31 00:18:04;;;;;;;15.63;7.27;;;3.90;88.10;;;;;;5097155;28;20782;-47
2022/01/31 00:20:30;;;;;;;15.00;7.23;;;3.80;87.90;;;;;;5097347;28;20438;-47
2022/01/31 00:22:55;;;;;;;12.67;7.17;;;3.80;88.00;;;;;;5097595;28;20414;-47
2022/01/31 00:25:21;;;;;;;12.63;6.70;;;3.90;88.10;;;;;;5097041;28;20482;-47
2022/01/31 00:27:50;;;;;;;10.33;6.33;;;3.90;87.90;;;;;;5097419;28;20238;-46
2022/01/31 00:30:16;;;;;;;13.07;6.93;;;3.90;87.80;;;;;;5097645;28;20263;-47
2022/01/31 00:32:43;;;;;;;12.90;7.07;;;3.90;87.70;;;;;;5097978;28;20419;-47
2022/01/31 00:35:09;;;;;;;9.90;5.93;;;3.90;87.50;;;;;;5097265;28;20484;-47
2022/01/31 00:37:35;;;;;;;8.67;6.00;;;4.00;87.60;;;;;;5097747;28;20441;-47
2022/01/31 00:40:01;;;;;;;14.50;6.03;;;4.00;87.60;;;;;;5097509;28;20436;-47
2022/01/31 00:42:28;;;;;;;10.37;5.80;;;4.00;87.70;;;;;;5097788;28;20230;-47
2022/01/31 00:44:58;;;;;;;15.07;6.93;;;4.00;87.80;;;;;;5097515;28;20690;-47
2022/01/31 00:47:27;;;;;;;12.73;6.70;;;4.00;87.80;;;;;;5097573;28;20426;-47
2022/01/31 00:50:04;;;;;;;9.77;6.27;;;4.00;87.80;;;;;;5097295;28;20421;-47
2022/01/31 00:52:29;;;;;;;10.23;6.80;;;4.00;87.70;;;;;;5097283;28;20862;-47
2022/01/31 00:54:55;;;;;;;12.90;7.20;;;4.00;87.70;;;;;;5097601;28;20407;-47
2022/01/31 00:57:21;;;;;;;13.80;7.77;;;4.10;87.70;;;;;;5079638;28;20184;-47
2022/01/31 00:59:50;;;;;;;12.73;7.63;;;4.10;87.50;;;;;;5097230;28;20255;-47
2022/01/31 01:02:20;;;;;;;15.37;7.50;;;4.10;87.40;;;;;;5097404;28;20186;-46
2022/01/31 01:04:45;;;;;;;4.93;2.20;;;4.10;87.60;;;;;;5097527;28;20411;-46
2022/01/31 01:07:11;;;;;;;7.73;3.53;;;4.70;97.10;;;;;;5100127;28;20487;-46
2022/01/31 01:09:37;;;;;;;7.43;4.00;;;6.10;99.90;;;;;;5100324;28;20177;-46
2022/01/31 01:12:04;;;;;;;8.70;3.97;;;7.20;99.90;;;;;;5098501;28;20478;-46
2022/01/31 01:14:30;;;;;;;8.07;5.00;;;8.10;99.90;;;;;;5098876;28;20179;-46
2022/01/31 01:16:56;;;;;;;5.80;3.37;;;8.70;99.90;;;;;;5098424;28;20910;-47
2022/01/31 01:19:23;;;;;;;10.13;5.00;;;9.10;99.90;;;;;;5098597;28;20233;-47
2022/01/31 01:21:48;;;;;;;6.47;4.00;;;9.20;97.50;;;;;;5099750;28;20419;-47
2022/01/31 01:24:15;;;;;;;9.10;5.17;;;9.00;94.00;;;;;;5099598;28;20577;-47
2022/01/31 01:26:41;;;;;;;8.20;5.00;;;8.50;91.60;;;;;;5098952;28;20209;-46
2022/01/31 01:29:07;;;;;;;11.53;6.20;;;8.10;90.70;;;;;;5099534;28;20414;-47
2022/01/31 01:31:33;;;;;;;9.53;5.70;;;7.70;89.50;;;;;;5099621;28;20407;-47
2022/01/31 01:33:58;;;;;;;9.50;5.50;;;7.30;88.70;;;;;;5099557;28;20582;-47
2022/01/31 01:36:24;;;;;;;9.90;6.30;;;6.90;88.70;;;;;;5099532;28;20230;-47
2022/01/31 01:38:50;;;;;;;12.83;6.00;;;6.60;88.50;;;;;;5099676;28;20555;-47
2022/01/31 01:41:15;;;;;;;6.33;5.43;;;6.40;88.70;;;;;;5099436;28;20168;-47
2022/01/31 01:43:41;;;;;;;11.60;6.00;;;6.20;88.70;;;;;;5099234;28;20668;-47
2022/01/31 01:46:06;;;;;;;9.57;5.60;;;6.00;89.00;;;;;;5098544;28;20211;-47
2022/01/31 01:48:32;;;;;;;6.33;4.73;;;5.90;88.90;;;;;;5098431;28;20188;-47
2022/01/31 01:50:59;;;;;;;9.77;5.27;;;5.80;89.10;;;;;;5081328;28;20428;-47
2022/01/31 01:53:25;;;;;;;9.07;5.20;;;5.60;89.10;;;;;;5098695;28;20871;-47
2022/01/31 01:55:52;;;;;;;12.40;5.30;;;5.60;89.30;;;;;;5098816;28;20421;-47
2022/01/31 01:58:20;;;;;;;7.53;5.50;;;5.40;89.20;;;;;;5099010;28;20185;-47
2022/01/31 02:00:50;;;;;;;11.73;5.53;;;5.40;89.20;;;;;;5099247;28;20415;-47
2022/01/31 02:03:20;;;;;;;9.63;5.80;;;5.30;89.20;;;;;;5098770;28;20855;-47
2022/01/31 02:05:46;;;;;;;8.47;4.53;;;5.30;89.30;;;;;;5080904;28;20541;-47
2022/01/31 02:08:13;;;;;;;13.00;5.63;;;5.30;89.10;;;;;;5081276;28;20430;-47
2022/01/31 02:10:40;;;;;;;12.37;5.60;;;5.20;89.00;;;;;;5058625;28;1153847;-47
2022/01/31 02:13:07;;;;;;;11.47;5.00;;;5.10;88.70;;;;;;5099853;28;20493;-47
2022/01/31 02:15:32;;;;;;;16.30;6.70;;;5.10;88.60;;;;;;5099888;28;20445;-47
2022/01/31 02:17:58;;;;;;;15.57;6.43;;;5.00;88.40;;;;;;5098812;28;20423;-47
2022/01/31 02:20:24;;;;;;;14.20;6.60;;;4.90;88.40;;;;;;5100260;28;20454;-47
2022/01/31 02:22:49;;;;;;;11.77;5.80;;;4.80;88.40;;;;;;5099799;28;20177;-47
2022/01/31 02:25:15;;;;;;;13.67;5.77;;;4.80;88.60;;;;;;5099880;28;20241;-46
2022/01/31 02:27:41;;;;;;;15.60;6.13;;;4.70;88.70;;;;;;5099278;28;20169;-46
2022/01/31 02:30:09;;;;;;;11.43;5.87;;;4.70;88.90;;;;;;5099591;28;20625;-46
2022/01/31 02:32:35;;;;;;;9.93;5.60;;;4.70;89.10;;;;;;5099809;28;20172;-47
2022/01/31 02:35:01;;;;;;;10.30;5.40;;;4.60;89.20;;;;;;5099832;28;20418;-46
2022/01/31 02:37:27;;;;;;;8.70;5.30;;;4.60;89.30;;;;;;5099555;28;20850;-47
2022/01/31 02:40:05;;;;;;;10.60;5.20;;;4.60;89.30;;;;;;5099303;28;20407;-47
2022/01/31 02:42:31;;;;;;;10.83;6.83;;;4.50;89.30;;;;;;5081738;28;20194;-47
2022/01/31 02:44:57;;;;;;;11.07;5.27;;;4.50;89.50;;;;;;5099522;28;20411;-47
2022/01/31 02:47:26;;;;;;;13.00;5.90;;;4.50;89.60;;;;;;5099077;28;20558;-46
2022/01/31 02:50:01;;;;;;;7.93;4.80;;;4.50;89.70;;;;;;5099163;28;20192;-47
2022/01/31 02:52:33;;;;;;;10.80;6.03;;;4.50;89.70;;;;;;5098650;28;20505;-47
2022/01/31 02:54:58;;;;;;;12.83;5.00;;;4.50;89.80;;;;;;5099474;28;20407;-47
2022/01/31 02:57:24;;;;;;;12.83;5.53;;;4.50;89.70;;;;;;5099293;28;20538;-46
2022/01/31 02:59:50;;;;;;;14.93;6.20;;;4.50;89.70;;;;;;5099081;28;20502;-47
2022/01/31 03:02:16;;;;;;;11.63;5.10;;;4.50;89.70;;;;;;5099025;28;20165;-47
2022/01/31 03:04:42;;;;;;;10.80;6.40;;;4.50;89.70;;;;;;5098985;28;20425;-46
2022/01/31 03:07:07;;;;;;;8.20;5.37;;;4.50;89.80;;;;;;5098520;28;20613;-47
2022/01/31 03:09:33;;;;;;;10.67;5.20;;;4.40;89.80;;;;;;5098267;28;20181;-47
2022/01/31 03:11:59;;;;;;;11.50;5.90;;;4.40;89.80;;;;;;5097415;28;20217;-47
2022/01/31 03:14:24;;;;;;;5.73;4.60;;;4.40;89.80;;;;;;5097937;28;20165;-47
2022/01/31 03:16:50;;;;;;;12.07;4.73;;;4.40;89.90;;;;;;5097282;28;20434;-47
2022/01/31 03:19:18;;;;;;;9.27;5.17;;;4.30;89.80;;;;;;5097747;28;20188;-47
2022/01/31 03:21:45;;;;;;;10.07;5.57;;;4.30;89.80;;;;;;5097816;28;20181;-47
2022/01/31 03:24:11;;;;;;;7.77;5.77;;;4.30;89.90;;;;;;5097557;28;20870;-47
2022/01/31 03:26:38;;;;;;;9.57;5.00;;;4.30;90.00;;;;;;5097552;28;20961;-46
2022/01/31 03:29:04;;;;;;;10.07;5.40;;;4.30;90.00;;;;;;5098051;28;20448;-46
2022/01/31 03:31:30;;;;;;;7.93;4.13;;;4.30;90.10;;;;;;5098760;28;20679;-47
2022/01/31 03:33:56;;;;;;;10.40;5.10;;;4.30;90.10;;;;;;5098506;28;20431;-47
2022/01/31 03:36:22;;;;;;;10.20;5.00;;;4.30;90.10;;;;;;5098312;28;20233;-46
2022/01/31 03:38:49;;;;;;;8.30;4.90;;;4.30;90.10;;;;;;5098617;28;20445;-47
2022/01/31 03:41:17;;;;;;;9.77;4.90;;;4.30;90.10;;;;;;5098065;28;20824;-47
2022/01/31 03:43:43;;;;;;;11.10;5.40;;;4.30;90.10;;;;;;5098102;28;20444;-46
2022/01/31 03:46:09;;;;;;;11.40;5.30;;;4.30;90.20;;;;;;5097780;28;20486;-46
2022/01/31 03:48:35;;;;;;;8.17;4.60;;;4.30;90.20;;;;;;5097175;28;20454;-47
2022/01/31 03:51:03;;;;;;;10.37;5.27;;;4.30;90.30;;;;;;5097193;28;20450;-46
2022/01/31 03:53:29;;;;;;;9.23;5.03;;;4.30;90.30;;;;;;5095749;28;20725;-47
2022/01/31 03:55:55;;;;;;;15.20;5.17;;;4.30;90.40;;;;;;5097035;28;20502;-47
2022/01/31 03:58:21;;;;;;;13.70;6.17;;;4.20;90.40;;;;;;5097538;28;20526;-46
2022/01/31 04:00:46;;;;;;;11.10;5.10;;;4.30;90.50;;;;;;5097104;28;20249;-46
2022/01/31 04:03:12;;;;;;;8.33;5.20;;;4.30;90.50;;;;;;5097514;28;20847;-47
2022/01/31 04:05:38;;;;;;;9.60;5.60;;;4.20;90.60;;;;;;5097532;28;20490;-47
2022/01/31 04:08:05;;;;;;;8.83;4.90;;;4.20;90.60;;;;;;5097098;28;20188;-47
2022/01/31 04:10:30;;;;;;;10.03;5.00;;;4.30;90.60;;;;;;5096917;28;20776;-46
2022/01/31 04:12:56;;;;;;;8.40;4.50;;;4.30;90.60;;;;;;5097124;28;20426;-46
2022/01/31 04:15:22;;;;;;;10.27;4.70;;;4.30;90.60;;;;;;5097818;28;20187;-47
2022/01/31 04:17:47;;;;;;;8.67;4.60;;;4.30;90.50;;;;;;5097645;28;20647;-46
2022/01/31 04:20:14;;;;;;;11.00;4.60;;;4.30;90.50;;;;;;5097772;28;20181;-47
2022/01/31 04:22:48;;;;;;;9.93;4.97;;;4.30;90.50;;;;;;5097233;28;20177;-47
2022/01/31 04:25:28;;;;;;;11.70;5.60;;;4.40;90.60;;;;;;5097844;28;20455;-47
2022/01/31 04:28:02;;;;;;;10.07;5.60;;;4.40;90.50;;;;;;5097543;28;20865;-47
2022/01/31 04:30:31;;;;;;;9.53;4.63;;;4.40;90.50;;;;;;5096589;28;20479;-47
2022/01/31 04:32:57;;;;;;;7.60;4.87;;;4.40;90.60;;;;;;5097182;28;20459;-47
2022/01/31 04:35:23;;;;;;;6.93;4.40;;;4.40;90.90;;;;;;5097967;28;20422;-46
2022/01/31 04:37:49;;;;;;;6.93;4.80;;;4.40;90.60;;;;;;5098044;28;20180;-47
2022/01/31 04:40:15;;;;;;;8.23;4.60;;;4.40;90.60;;;;;;5098592;28;20422;-47
2022/01/31 04:42:43;;;;;;;8.27;5.07;;;4.50;90.70;;;;;;5101429;28;20183;-47
2022/01/31 04:45:09;;;;;;;8.90;5.00;;;4.50;90.70;;;;;;5101324;28;20425;-47
2022/01/31 04:47:35;;;;;;;8.60;5.67;;;4.50;90.60;;;;;;5101283;28;20444;-46
2022/01/31 04:50:01;;;;;;;10.20;5.47;;;4.50;90.60;;;;;;5101308;28;20539;-46
2022/01/31 04:52:27;;;;;;;8.00;5.10;;;4.50;90.60;;;;;;5100457;28;20168;-47
2022/01/31 04:54:52;;;;;;;8.87;5.73;;;4.50;90.60;;;;;;5101032;28;20306;-47
2022/01/31 04:57:18;;;;;;;8.03;3.60;;;4.50;90.60;;;;;;5101062;28;20597;-47
2022/01/31 04:59:44;;;;;;;6.50;4.00;;;4.60;90.60;;;;;;5099696;28;20184;-46
2022/01/31 05:02:10;;;;;;;6.90;3.60;;;4.50;90.50;;;;;;5098726;28;20174;-47
2022/01/31 05:04:36;;;;;;;8.07;4.07;;;4.50;90.50;;;;;;5098333;28;20429;-43
2022/01/31 05:07:01;;;;;;;5.47;3.00;;;4.60;90.40;;;;;;5099226;28;20465;-42
2022/01/31 05:09:27;;;;;;;5.67;3.63;;;4.60;90.40;;;;;;5099254;28;20169;-42
2022/01/31 05:11:53;;;;;;;13.93;3.17;;;4.70;90.30;;;;;;5099916;28;20225;-42
2022/01/31 05:14:18;;;;;;;6.97;3.50;;;4.70;90.20;;;;;;5100023;28;20252;-45
2022/01/31 05:16:44;;;;;;;7.00;3.43;;;4.70;90.10;;;;;;5099305;28;20459;-42
2022/01/31 05:19:10;;;;;;;9.40;3.60;;;4.80;90.10;;;;;;5099172;28;20199;-43
2022/01/31 05:21:38;;;;;;;8.77;4.10;;;4.80;90.00;;;;;;5081320;28;20824;-43
2022/01/31 05:24:04;;;;;;;5.53;3.57;;;4.80;90.10;;;;;;5099058;28;20192;-42
2022/01/31 05:26:29;;;;;;;11.03;4.60;;;4.80;90.10;;;;;;5097931;28;20458;-42
2022/01/31 05:28:57;;;;;;;7.73;4.60;;;4.80;90.20;;;;;;5098025;28;20437;-42
2022/01/31 05:31:22;;;;;;;8.43;4.07;;;4.80;90.30;;;;;;5097475;28;20237;-44
2022/01/31 05:33:48;;;;;;;8.70;5.13;;;4.70;90.30;;;;;;5099330;28;20449;-43
2022/01/31 05:36:14;;;;;;;8.03;4.67;;;4.70;90.50;;;;;;5097702;28;20573;-42
2022/01/31 05:38:40;;;;;;;8.67;4.20;;;4.70;90.60;;;;;;5097936;28;20172;-41
2022/01/31 05:41:07;;;;;;;7.50;4.20;;;4.70;90.60;;;;;;5099068;28;20445;-41
2022/01/31 05:43:33;;;;;;;10.87;4.83;;;4.70;90.70;;;;;;5098071;28;20423;-40
2022/01/31 05:45:58;;;;;;;8.47;4.20;;;4.60;90.70;;;;;;5098688;28;20941;-41
2022/01/31 05:48:25;;;;;;;10.53;4.50;;;4.70;90.80;;;;;;5099122;28;20605;-41
2022/01/31 05:50:51;;;;;;;8.67;4.77;;;4.70;90.80;;;;;;5099059;28;20185;-41
2022/01/31 05:53:17;;;;;;;7.43;3.90;;;4.60;90.80;;;;;;5081338;28;20423;-43
2022/01/31 05:55:44;;;;;;;6.30;3.60;;;4.60;90.90;;;;;;5098696;28;20179;-41
2022/01/31 05:58:10;;;;;;;5.17;3.40;;;4.60;90.90;;;;;;5098411;28;20461;-43
2022/01/31 06:00:37;;;;;;;7.73;3.87;;;4.60;91.00;;;;;;5098310;28;20414;-41
2022/01/31 06:03:03;;;;;;;8.00;4.03;;;4.60;91.10;;;;;;5107565;28;20246;-43
2022/01/31 06:05:29;;;;;;;5.63;3.63;;;4.60;91.10;;;;;;5117859;28;20748;-41
2022/01/31 06:07:56;;;;;;;8.33;3.77;;;4.60;91.10;;;;;;5089336;28;20560;-42
2022/01/31 06:10:23;;;;;;;6.30;3.73;;;4.60;91.00;;;;;;5096293;28;20462;-41
2022/01/31 06:12:51;;;;;;;8.50;3.83;;;4.60;91.00;;;;;;5097768;28;20425;-42
2022/01/31 06:15:17;;;;;;;11.03;4.10;;;4.60;91.00;;;;;;5095656;28;20427;-43
2022/01/31 06:17:42;;;;;;;8.40;3.77;;;4.70;91.10;;;;;;5096099;28;20440;-41
2022/01/31 06:20:08;;;;;;;10.73;4.43;;;4.60;91.00;;;;;;5112123;28;20183;-42
2022/01/31 06:22:34;;;;;;;6.47;4.07;;;4.70;91.10;;;;;;5112125;28;20284;-42
2022/01/31 06:25:00;;;;;;;9.57;4.57;;;4.70;91.20;;;;;;5099443;28;20461;-43
2022/01/31 06:27:25;;;;;;;9.27;4.37;;;4.70;91.30;;;;;;5115740;28;20168;-42
2022/01/31 06:29:51;;;;;;;7.03;3.30;;;4.70;91.30;;;;;;5115791;28;20236;-41
2022/01/31 06:32:18;;;;;;;8.70;4.23;;;4.70;91.40;;;;;;5117292;28;20176;-41
2022/01/31 06:34:44;;;;;;;9.83;4.27;;;4.70;91.60;;;;;;5116904;28;20168;-43
2022/01/31 06:37:09;;;;;;;7.87;3.73;;;4.70;91.70;;;;;;5114193;28;20437;-42
2022/01/31 06:39:35;;;;;;;5.37;4.30;;;4.70;92.00;;;;;;5111106;28;20187;-42
2022/01/31 06:42:01;;;;;;;6.90;3.80;;;4.70;92.20;;;;;;5115719;28;20183;-42
2022/01/31 06:44:27;;;;;;;8.27;3.93;;;4.70;92.30;;;;;;5117150;28;20652;-42
2022/01/31 06:46:52;;;;;;;10.00;4.20;;;4.70;92.40;;;;;;5114810;28;20287;-43
2022/01/31 06:49:18;;;;;;;8.23;4.23;;;4.70;92.60;;;;;;5113727;28;20172;-42
2022/01/31 06:51:43;;;;;;;8.87;4.13;;;4.70;92.80;;;;;;5093834;28;20165;-42
2022/01/31 06:54:09;;;;;;;9.90;4.40;;;4.70;93.30;;;;;;5107246;28;20184;-42
2022/01/31 06:56:39;;;;;;;9.93;4.90;;;4.70;93.30;;;;;;5114827;28;20191;-43
2022/01/31 06:59:04;;;;;;;10.43;5.73;;;4.60;93.40;;;;;;5114611;28;20191;-42
2022/01/31 07:01:30;;;;;;;10.73;4.60;;;4.60;93.70;;;;;;5115379;28;20668;-42
2022/01/31 07:03:57;;;;;;;7.90;4.23;;;4.60;93.80;;;;;;5115175;28;20180;-42
2022/01/31 07:06:24;;;;;;;9.33;4.43;;;4.60;94.00;;;;;;5096421;28;20218;-42
2022/01/31 07:08:51;;;;;;;7.50;4.20;;;4.60;94.10;;;;;;5114255;28;20444;-44
2022/01/31 07:11:21;;;;;;;9.87;3.97;;;4.60;94.40;;;;;;5115182;28;20556;-42
2022/01/31 07:13:49;;;;;;;6.00;4.00;;;4.60;94.50;;;;;;5115989;28;20417;-42
2022/01/31 07:16:15;;;;;;;9.33;4.70;;;4.60;94.70;;;;;;5116293;28;20470;-42
2022/01/31 07:18:42;;;;;;;8.93;4.70;;;4.60;94.80;;;;;;5098817;28;20433;-43
2022/01/31 07:21:12;;;;;;;9.17;4.23;;;4.60;94.90;;;;;;5114978;28;20425;-42
2022/01/31 07:23:52;;;;;;;7.60;3.90;;;4.60;95.00;;;;;;5116206;28;20482;-41
2022/01/31 07:26:18;;;;;;;8.20;4.37;;;4.60;95.10;;;;;;5115884;28;20466;-42
2022/01/31 07:28:43;;;;;;;9.07;4.93;;;4.60;95.20;;;;;;5116494;28;20417;-43
2022/01/31 07:31:11;;;;;;;6.93;4.17;;;4.60;95.30;;;;;;5098520;28;20211;-41
2022/01/31 07:33:37;;;;;;;7.13;4.70;;;4.60;95.40;;;;;;5115320;28;20604;-43
2022/01/31 07:36:03;;;;;;;7.27;5.20;;;4.60;95.40;;;;;;5115197;28;20422;-41
2022/01/31 07:38:29;;;;;;;7.23;4.57;;;4.60;95.60;;;;;;5115942;28;20426;-40
2022/01/31 07:40:57;;;;;;;5.47;3.90;;;4.60;95.70;;;;;;5098555;28;20422;-42
2022/01/31 07:43:24;;;;;;;7.03;4.23;;;4.70;95.70;;;;;;5115691;28;20442;-42
2022/01/31 07:45:50;;;;;;;8.07;3.90;;;4.70;95.80;;;;;;5116913;28;20492;-40
2022/01/31 07:48:15;;;;;;;5.80;3.97;;;4.70;96.00;;;;;;5116554;28;20418;-41
2022/01/31 07:50:41;;;;;;;5.70;3.93;;;4.70;96.00;;;;;;5115968;28;20549;-42
2022/01/31 07:53:07;;;;;;;4.50;3.47;;;4.70;96.00;;;;;;5116624;28;20432;-41
2022/01/31 07:55:33;;;;;;;3.40;3.10;;;4.70;96.10;;;;;;5116645;28;20279;-39
2022/01/31 07:57:59;;;;;;;6.17;3.97;;;4.70;96.30;;;;;;5099310;28;20176;-42
2022/01/31 08:00:24;;;;;;;8.80;3.17;;;4.70;96.20;;;;;;5116570;28;20429;-43
2022/01/31 08:02:52;;;;;;;5.73;3.57;;;4.70;96.20;;;;;;5118107;28;20184;-42
2022/01/31 08:05:21;;;;;;;4.70;2.73;;;4.70;96.20;;;;;;5116161;28;20476;-42
2022/01/31 08:07:47;;;;;;;4.53;3.53;;;4.70;96.30;;;;;;5115551;28;20529;-42
2022/01/31 08:10:13;;;;;;;4.43;3.27;;;4.80;96.30;;;;;;5114009;28;20429;-42
2022/01/31 08:12:41;;;;;;;8.07;2.53;;;4.70;96.30;;;;;;5116048;28;20414;-42
2022/01/31 08:15:09;;;;;;;2.83;2.53;;;4.80;96.40;;;;;;5114798;28;20432;-43
2022/01/31 08:17:35;;;;;;;2.07;1.87;;;4.80;96.40;;;;;;5115168;28;20449;-44
2022/01/31 08:20:01;;;;;;;3.57;2.10;;;5.70;99.90;;;;;;5115497;28;21010;-42
2022/01/31 08:22:26;;;;;;;7.70;1.80;;;9.50;99.90;;;;;;5115165;28;20536;-41
2022/01/31 08:24:52;;;;;;;2.60;1.57;;;11.70;99.20;;;;;;5116521;28;20517;-43
2022/01/31 08:27:18;;;;;;;2.23;1.50;;;13.50;93.30;;;;;;5114924;28;20268;-43
2022/01/31 08:29:43;;;;;;;1.77;1.20;;;14.40;90.00;;;;;;5116140;28;20200;-42
2022/01/31 08:32:33;;;;;;;1.27;1.07;;;15.10;85.70;;;;;;5114247;28;20184;-41
2022/01/31 08:37:40;;;;;;;2.03;1.50;;;14.10;70.60;;;;;;4981607;28;20416;-41
2022/01/31 08:40:07;;;;;;;3.13;1.70;;;12.60;70.90;;;;;;5093849;28;20518;-40
2022/01/31 08:42:33;;;;;;;2.40;1.60;;;11.50;71.20;;;;;;5037762;28;20622;-42
2022/01/31 08:44:58;;;;;;;1.60;1.20;;;10.60;73.70;;;;;;5092056;28;20463;-42
2022/01/31 08:47:24;;;;;;;2.40;1.17;;;9.80;77.00;;;;;;5093821;28;20501;-42
2022/01/31 08:49:50;;;;;;;2.90;1.10;;;9.20;78.50;;;;;;5094093;28;20177;-41
2022/01/31 08:52:15;;;;;;;1.40;1.20;;;8.70;80.50;;;;;;5093113;28;20188;-41
2022/01/31 08:54:41;;;;;;;1.70;1.03;;;8.40;82.40;;;;;;5091784;28;20318;-42
2022/01/31 08:57:07;;;;;;;1.50;1.10;;;8.20;84.20;;;;;;5075899;28;20581;-43
2022/01/31 08:59:33;;;;;;;1.70;1.30;;;8.00;85.20;;;;;;5075174;28;20618;-40
2022/01/31 09:02:10;;;;;;;1.37;1.13;;;7.90;86.30;;;;;;5075486;28;20422;-41
2022/01/31 09:04:48;;;;;;;1.57;1.10;;;7.70;87.10;;;;;;5092603;28;20178;-40
2022/01/31 09:07:16;;;;;;;1.50;0.90;;;7.70;87.90;;;;;;5092120;28;20749;-41
2022/01/31 09:09:42;;;;;;;2.47;1.73;;;7.60;88.40;;;;;;5094105;28;20674;-42
2022/01/31 09:12:10;;;;;;;4.50;1.50;;;7.50;88.80;;;;;;5076337;28;20535;-40
2022/01/31 09:14:36;;;;;;;3.93;1.50;;;7.50;89.20;;;;;;5092813;28;20400;-41
2022/01/31 09:17:02;;;;;;;3.47;1.40;;;7.40;89.50;;;;;;5094037;28;20415;-41
2022/01/31 09:19:28;;;;;;;2.70;1.27;;;7.40;90.00;;;;;;5093079;28;20481;-42
2022/01/31 09:21:53;;;;;;;1.70;0.97;;;7.70;90.60;;;;;;5092762;28;20921;-39
2022/01/31 09:24:19;;;;;;;1.63;1.10;;;8.30;90.70;;;;;;5094258;28;20191;-43
2022/01/31 09:26:46;;;;;;;3.53;1.37;;;8.90;90.00;;;;;;5096161;28;20241;-42
2022/01/31 09:29:12;;;;;;;2.17;1.17;;;9.80;88.70;;;;;;5097198;28;20172;-40
2022/01/31 09:31:38;;;;;;;1.50;1.00;;;10.50;84.30;;;;;;5098060;28;20817;-41
2022/01/31 09:34:05;;;;;;;2.53;1.40;;;10.80;81.20;;;;;;5097629;28;20415;-40
2022/01/31 09:36:31;;;;;;;3.97;1.10;;;11.30;79.10;;;;;;5098443;28;20210;-39
2022/01/31 09:38:57;;;;;;;2.60;1.10;;;11.60;76.90;;;;;;5099353;28;20523;-41
2022/01/31 09:41:25;;;;;;;1.87;0.90;;;11.50;74.80;;;;;;5098720;28;20177;-42
2022/01/31 09:44:04;;;;;;;2.10;1.30;;;11.40;74.40;;;;;;5078888;28;20177;-41
2022/01/31 09:46:46;;;;;;;2.10;1.10;;;11.20;73.50;;;;;;5096333;28;20462;-41
2022/01/31 09:49:12;;;;;;;2.17;1.27;;;10.80;72.90;;;;;;5095459;28;20733;-40
2022/01/31 09:51:38;;;;;;;1.77;1.30;;;10.50;72.90;;;;;;5094146;28;20426;-40
2022/01/31 09:54:04;;;;;;;4.60;1.53;;;10.30;73.40;;;;;;5093598;28;20410;-41
2022/01/31 09:56:33;;;;;;;3.03;1.40;;;10.20;74.20;;;;;;5095239;28;20186;-40
2022/01/31 09:59:01;;;;;;;2.07;1.47;;;10.10;74.80;;;;;;5096251;28;20417;-40
2022/01/31 10:01:33;;;;;;;4.90;1.60;;;10.10;74.90;;;;;;5095200;28;20817;-40
2022/01/31 10:04:02;;;;;;;3.30;1.50;;;9.90;75.80;;;;;;5095310;28;20429;-41
2022/01/31 10:06:31;;;;;;;1.70;1.47;;;9.60;75.30;;;;;;5094904;28;20471;-40
2022/01/31 10:08:59;;;;;;;2.47;1.57;;;9.30;75.30;;;;;;5107530;28;20430;-41
2022/01/31 10:11:29;;;;;;;4.23;1.60;;;9.20;75.90;;;;;;5118586;28;20477;-41
2022/01/31 10:16:44;;;;;;;2.50;1.43;;;8.90;76.40;;;;;;5102405;28;20485;-42
2022/01/31 10:19:11;;;;;;;3.63;1.90;;;8.70;76.60;;;;;;5118052;28;20487;-41
2022/01/31 10:21:57;;;;;;;4.23;1.67;;;8.60;76.40;;;;;;5099249;28;20424;-42
2022/01/31 10:24:24;;;;;;;2.30;1.70;;;8.30;76.70;;;;;;5117257;28;20422;-40
2022/01/31 10:26:50;;;;;;;4.20;2.17;;;8.10;77.70;;;;;;5118071;28;20461;-42
2022/01/31 10:29:18;;;;;;;3.03;1.60;;;8.00;78.70;;;;;;5116335;28;20704;-40
2022/01/31 10:32:25;;;;;;;3.37;1.90;;;8.00;79.30;;;;;;5114030;28;20168;-39
2022/01/31 10:34:57;;;;;;;2.40;1.63;;;7.90;80.00;;;;;;5092013;28;20757;-41
2022/01/31 10:37:24;;;;;;;3.03;1.80;;;7.90;80.50;;;;;;5113982;28;20414;-41
2022/01/31 10:53:25;;;;;;;3.57;1.57;;;10.40;93.80;;;;;;5094804;28;20918;-43
2022/01/31 10:55:55;;;;;;;5.60;1.67;;;11.30;90.60;;;;;;5093644;28;20506;-42
2022/01/31 10:58:21;;;;;;;3.27;1.30;;;12.10;86.50;;;;;;5092684;28;20395;-41
2022/01/31 11:00:46;;;;;;;2.07;1.20;;;12.60;83.40;;;;;;5093941;28;20480;-40
2022/01/31 11:03:31;;;;;;;2.60;1.23;;;13.10;79.90;;;;;;5095236;28;20598;-41
2022/01/31 11:05:59;;;;;;;3.30;2.03;;;13.30;73.50;;;;;;5114040;28;20203;-42
2022/01/31 11:08:24;;;;;;;1.93;1.23;;;12.80;64.10;;;;;;5116922;28;21099;-41
2022/01/31 11:10:57;;;;;;;3.07;1.40;;;12.50;61.70;;;;;;5114937;28;20580;-41
2022/01/31 11:13:25;;;;;;;4.80;1.70;;;12.00;61.40;;;;;;5115067;28;20180;-41
2022/01/31 11:15:51;;;;;;;2.37;1.20;;;11.30;59.90;;;;;;5114655;28;20459;-41
2022/01/31 11:18:17;;;;;;;5.23;1.87;;;10.80;61.10;;;;;;5095400;28;20480;-42
2022/01/31 11:20:44;;;;;;;1.83;1.20;;;10.40;61.90;;;;;;5096706;28;20456;-42
2022/01/31 11:23:10;;;;;;;2.60;1.20;;;10.00;62.70;;;;;;5098467;28;20530;-45
2022/01/31 11:25:38;;;;;;;1.93;1.10;;;9.70;65.40;;;;;;5115366;28;20462;-42
2022/01/31 11:28:04;;;;;;;1.90;1.30;;;9.50;66.60;;;;;;5098982;28;20414;-42
2022/01/31 11:30:30;;;;;;;2.10;1.20;;;9.30;67.70;;;;;;5096286;28;20436;-40
2022/01/31 11:32:56;;;;;;;3.50;1.90;;;9.00;68.80;;;;;;5115172;28;20185;-41
2022/01/31 11:35:23;;;;;;;2.90;1.63;;;8.90;69.70;;;;;;5112354;28;20430;-42
2022/01/31 11:37:49;;;;;;;4.03;1.40;;;8.80;70.60;;;;;;5114624;28;20417;-41
2022/01/31 11:40:16;;;;;;;1.77;1.30;;;8.70;71.40;;;;;;5115774;28;20444;-43
2022/01/31 11:42:43;;;;;;;2.60;1.57;;;8.60;72.10;;;;;;5115414;28;20901;-41
2022/01/31 11:45:14;;;;;;;2.43;1.90;;;8.50;72.60;;;;;;5097287;28;20999;-42
2022/01/31 11:47:41;;;;;;;3.20;1.50;;;8.20;73.50;;;;;;5114669;28;20434;-43
2022/01/31 11:50:12;;;;;;;4.00;1.70;;;8.10;73.50;;;;;;5096875;28;20455;-42
2022/01/31 11:52:47;;;;;;;2.60;1.40;;;7.90;74.10;;;;;;5116171;28;20701;-41
2022/01/31 11:55:15;;;;;;;3.23;1.80;;;7.80;75.10;;;;;;5116216;28;20453;-43
2022/01/31 11:57:45;;;;;;;2.27;1.40;;;7.70;75.90;;;;;;5114377;28;20451;-42
2022/01/31 12:00:13;;;;;;;4.93;1.57;;;7.50;76.50;;;;;;5114947;28;21195;-42
2022/01/31 12:02:53;;;;;;;4.13;1.50;;;7.50;76.90;;;;;;5115989;28;20448;-42
2022/01/31 12:05:26;;;;;;;5.37;1.70;;;7.50;77.20;;;;;;5098594;28;20449;-42
2022/01/31 12:08:04;;;;;;;1.77;1.10;;;7.50;77.70;;;;;;5115720;28;20539;-41
2022/01/31 12:10:46;;;;;;;3.67;1.40;;;7.40;77.90;;;;;;5115704;28;20466;-40
2022/01/31 12:13:42;;;;;;;4.00;1.73;;;7.40;78.30;;;;;;5114451;28;20413;-43
2022/01/31 12:22:01;;;;;;;3.97;1.60;;;7.20;78.70;;;;;;5096499;28;20414;-44
2022/01/31 12:24:37;;;;;;;5.50;1.63;;;7.10;78.70;;;;;;5091919;28;20729;-43
2022/01/31 12:27:13;;;;;;;5.03;1.37;;;7.00;79.10;;;;;;5096131;28;20454;-42
2022/01/31 12:29:52;;;;;;;2.10;1.03;;;7.00;79.40;;;;;;5113362;28;20425;-41
2022/01/31 12:32:24;;;;;;;2.83;1.30;;;7.00;79.70;;;;;;5113758;28;20575;-42
2022/01/31 12:34:56;;;;;;;5.33;2.60;;;7.00;80.00;;;;;;5114050;28;20426;-44
2022/01/31 12:37:37;;;;;;;3.07;1.40;;;6.90;80.50;;;;;;5077213;28;20707;-43
2022/01/31 12:40:11;;;;;;;2.23;1.27;;;6.90;80.90;;;;;;5076152;28;20457;-43
2022/01/31 12:43:51;;;;;;;3.93;1.90;;;6.90;81.40;;;;;;5093632;28;20422;-41
2022/01/31 12:45:37;;;;;;;3.77;1.40;;;6.80;81.90;;;;;;5081770;28;20470;-42
2022/01/31 12:48:09;;;;;;;5.20;1.60;;;6.80;82.60;;;;;;5097540;28;20422;-41
2022/01/31 12:50:44;;;;;;;3.50;1.43;;;6.80;83.00;;;;;;5095920;28;20462;-41
2022/01/31 12:53:36;;;;;;;3.13;1.13;;;6.80;83.50;;;;;;5095488;28;20452;-43
2022/01/31 12:56:12;;;;;;;2.90;1.37;;;6.70;83.60;;;;;;5096095;28;20749;-41
2022/01/31 12:58:49;;;;;;;5.00;1.60;;;6.70;84.10;;;;;;5095096;28;20752;-42
2022/01/31 13:01:23;;;;;;;4.67;1.60;;;6.70;84.70;;;;;;5094325;28;20433;-47
2022/01/31 13:03:52;;;;;;;2.90;1.67;;;6.70;85.30;;;;;;5104688;28;20425;-42
2022/01/31 13:06:28;;;;;;;4.97;1.43;;;6.60;85.70;;;;;;5119014;28;20465;-43
2022/01/31 13:08:59;;;;;;;5.20;1.37;;;6.60;86.10;;;;;;5117803;28;20434;-41
2022/01/31 13:11:26;;;;;;;5.00;1.40;;;6.60;86.60;;;;;;5100515;28;20465;-42
2022/01/31 13:13:53;;;;;;;8.20;1.50;;;7.40;97.80;;;;;;5117899;28;20426;-41
2022/01/31 13:16:19;;;;;;;3.17;1.90;;;8.20;98.60;;;;;;5098971;28;20811;-42
2022/01/31 13:18:45;;;;;;;2.83;1.23;;;8.90;96.10;;;;;;5118218;28;20584;-42
2022/01/31 13:21:19;;;;;;;4.03;1.60;;;8.70;92.90;;;;;;5081750;28;20199;-42